createdAt,value
2018-07-19T00:01:08.096Z,17.30
2018-07-19T00:03:35.566Z,17.20
2018-07-19T00:06:02.945Z,17.30
2018-07-19T00:08:30.389Z,17.30
2018-07-19T00:10:57.783Z,17.20
2018-07-19T00:13:25.281Z,17.30
2018-07-19T00:15:52.681Z,17.20
2018-07-19T00:18:24.519Z,17.20
2018-07-19T00:20:52.231Z,17.20
2018-07-19T00:23:19.675Z,17.10
2018-07-19T00:25:47.022Z,17.10
2018-07-19T00:28:14.452Z,17.00
2018-07-19T00:30:41.822Z,16.90
2018-07-19T00:33:09.290Z,17.00
2018-07-19T00:35:36.671Z,17.10
2018-07-19T00:38:04.023Z,16.90
2018-07-19T00:40:31.454Z,16.80
2018-07-19T00:42:58.845Z,16.70
2018-07-19T00:45:26.210Z,16.70
2018-07-19T00:47:53.618Z,16.70
2018-07-19T00:50:20.971Z,16.60
2018-07-19T00:52:48.312Z,16.70
2018-07-19T00:55:15.789Z,16.60
2018-07-19T00:57:43.238Z,16.60
2018-07-19T01:00:10.602Z,16.50
2018-07-19T01:02:38.136Z,16.60
2018-07-19T01:05:05.572Z,16.40
2018-07-19T01:07:32.866Z,16.30
2018-07-19T01:10:00.306Z,16.40
2018-07-19T01:12:27.696Z,16.40
2018-07-19T01:14:55.160Z,16.30
2018-07-19T01:17:22.526Z,16.20
2018-07-19T01:19:50.001Z,16.20
2018-07-19T01:22:17.438Z,16.30
2018-07-19T01:24:44.808Z,16.10
2018-07-19T01:27:12.246Z,16.30
2018-07-19T01:29:39.678Z,16.20
2018-07-19T01:32:07.213Z,16.30
2018-07-19T01:34:34.610Z,16.10
2018-07-19T01:37:02.038Z,16.20
2018-07-19T01:39:29.381Z,16.10
2018-07-19T01:42:18.055Z,16.10
2018-07-19T01:44:45.445Z,16.10
2018-07-19T01:47:12.973Z,15.90
2018-07-19T01:49:42.277Z,15.80
2018-07-19T01:52:10.313Z,15.70
2018-07-19T01:54:37.945Z,15.80
2018-07-19T01:57:06.013Z,15.70
2018-07-19T01:59:33.427Z,15.60
2018-07-19T02:02:00.863Z,15.60
2018-07-19T02:04:28.337Z,15.50
2018-07-19T02:06:55.805Z,15.50
2018-07-19T02:09:23.163Z,15.40
2018-07-19T02:11:50.901Z,15.30
2018-07-19T02:14:18.317Z,15.30
2018-07-19T02:16:45.997Z,15.30
2018-07-19T02:19:13.625Z,15.20
2018-07-19T02:21:41.825Z,15.20
2018-07-19T02:24:09.447Z,15.10
2018-07-19T02:26:36.760Z,15.10
2018-07-19T02:29:04.705Z,15.10
2018-07-19T02:31:32.197Z,15.20
2018-07-19T02:33:59.567Z,15.10
2018-07-19T02:36:27.112Z,15.10
2018-07-19T02:38:54.518Z,15.00
2018-07-19T02:41:21.959Z,15.00
2018-07-19T02:43:49.376Z,15.00
2018-07-19T02:46:16.931Z,15.10
2018-07-19T02:48:44.380Z,15.00
2018-07-19T02:51:11.960Z,14.90
2018-07-19T02:56:06.732Z,14.70
2018-07-19T02:58:34.146Z,14.70
2018-07-19T03:01:01.532Z,14.70
2018-07-19T03:03:29.049Z,14.70
2018-07-19T03:05:56.551Z,14.60
2018-07-19T03:08:24.052Z,14.70
2018-07-19T03:10:51.524Z,14.70
2018-07-19T03:13:19.002Z,14.70
2018-07-19T03:15:46.453Z,14.70
2018-07-19T03:18:13.980Z,14.70
2018-07-19T03:20:41.407Z,14.60
2018-07-19T03:23:08.845Z,14.60
2018-07-19T03:25:36.257Z,14.60
2018-07-19T03:28:03.709Z,14.60
2018-07-19T03:30:31.128Z,14.50
2018-07-19T03:32:58.534Z,14.40
2018-07-19T03:35:26.001Z,14.40
2018-07-19T03:37:53.444Z,14.50
2018-07-19T03:40:20.857Z,14.40
2018-07-19T03:42:48.299Z,14.50
2018-07-19T03:45:15.682Z,14.40
2018-07-19T03:47:43.043Z,14.40
2018-07-19T03:50:10.498Z,14.40
2018-07-19T03:52:37.914Z,14.40
2018-07-19T03:55:05.465Z,14.30
2018-07-19T03:57:32.840Z,14.30
2018-07-19T04:00:00.398Z,14.20
2018-07-19T04:02:27.790Z,14.20
2018-07-19T04:04:55.254Z,14.30
2018-07-19T04:07:22.652Z,14.20
2018-07-19T04:09:49.974Z,14.10
2018-07-19T04:12:17.372Z,14.20
2018-07-19T04:14:44.854Z,14.20
2018-07-19T04:17:12.683Z,14.20
2018-07-19T04:19:40.142Z,14.20
2018-07-19T04:22:07.594Z,14.20
2018-07-19T04:25:39.665Z,14.20
2018-07-19T04:28:07.213Z,14.40
2018-07-19T04:30:35.501Z,14.50
2018-07-19T04:33:08.141Z,14.50
2018-07-19T04:35:35.979Z,14.50
2018-07-19T04:38:03.446Z,14.50
2018-07-19T04:40:31.215Z,14.60
2018-07-19T04:42:58.579Z,14.70
2018-07-19T04:45:26.011Z,14.70
2018-07-19T04:47:53.341Z,14.80
2018-07-19T04:50:20.704Z,14.80
2018-07-19T04:52:48.070Z,14.90
2018-07-19T04:55:15.457Z,15.00
2018-07-19T04:57:42.904Z,15.10
2018-07-19T05:00:10.365Z,15.20
2018-07-19T05:02:37.782Z,15.30
2018-07-19T05:05:05.290Z,15.40
2018-07-19T05:07:32.651Z,15.50
2018-07-19T05:10:00.049Z,15.50
2018-07-19T05:12:27.511Z,15.60
2018-07-19T05:14:54.867Z,15.80
2018-07-19T05:17:22.330Z,15.90
2018-07-19T05:19:49.703Z,16.00
2018-07-19T05:22:17.070Z,16.20
2018-07-19T05:24:45.179Z,16.30
2018-07-19T05:27:12.597Z,16.40
2018-07-19T05:29:40.014Z,16.50
2018-07-19T05:32:07.605Z,16.60
2018-07-19T05:34:35.079Z,16.70
2018-07-19T05:37:02.473Z,16.80
2018-07-19T05:39:29.913Z,17.00
2018-07-19T05:41:57.393Z,17.10
2018-07-19T05:44:24.687Z,17.20
2018-07-19T05:46:52.091Z,17.30
2018-07-19T05:49:19.573Z,17.40
2018-07-19T05:51:46.989Z,17.50
2018-07-19T05:54:14.489Z,17.70
2018-07-19T05:56:41.970Z,17.90
2018-07-19T05:59:09.449Z,18.00
2018-07-19T06:01:36.863Z,18.20
2018-07-19T06:04:04.363Z,18.30
2018-07-19T06:06:31.962Z,18.50
2018-07-19T06:08:59.390Z,18.70
2018-07-19T06:11:26.855Z,18.80
2018-07-19T06:13:54.251Z,19.00
2018-07-19T06:16:21.799Z,19.10
2018-07-19T06:18:49.313Z,19.30
2018-07-19T06:21:16.626Z,19.40
2018-07-19T06:23:44.165Z,19.60
2018-07-19T06:26:11.889Z,19.90
2018-07-19T06:28:39.486Z,19.90
2018-07-19T06:31:06.952Z,20.10
2018-07-19T06:33:34.336Z,20.00
2018-07-19T06:36:01.871Z,20.10
2018-07-19T06:38:29.374Z,20.30
2018-07-19T06:40:56.826Z,20.30
2018-07-19T06:43:24.134Z,20.40
2018-07-19T06:45:51.502Z,20.40
2018-07-19T06:48:19.070Z,20.60
2018-07-19T06:50:46.524Z,20.40
2018-07-19T06:53:14.034Z,20.30
2018-07-19T06:55:41.402Z,20.60
2018-07-19T06:58:08.877Z,20.70
2018-07-19T07:00:36.306Z,20.80
2018-07-19T07:03:03.741Z,20.90
2018-07-19T07:05:31.096Z,20.80
2018-07-19T07:07:58.500Z,20.90
2018-07-19T07:10:25.994Z,21.00
2018-07-19T07:12:53.402Z,20.60
2018-07-19T07:15:20.770Z,20.90
2018-07-19T07:17:48.079Z,21.20
2018-07-19T07:20:15.535Z,21.20
2018-07-19T07:22:42.985Z,21.30
2018-07-19T07:25:10.369Z,21.50
2018-07-19T07:27:37.928Z,21.70
2018-07-19T07:30:05.583Z,21.70
2018-07-19T07:32:33.054Z,21.90
2018-07-19T07:35:00.518Z,21.90
2018-07-19T07:37:27.929Z,22.00
2018-07-19T07:39:55.337Z,22.10
2018-07-19T07:42:22.785Z,22.20
2018-07-19T07:44:50.127Z,22.30
2018-07-19T07:47:17.557Z,22.50
2018-07-19T07:49:44.925Z,22.50
2018-07-19T07:52:12.325Z,22.70
2018-07-19T07:54:39.746Z,22.60
2018-07-19T07:57:07.226Z,22.60
2018-07-19T07:59:34.690Z,22.60
2018-07-19T08:02:02.050Z,22.80
2018-07-19T08:04:29.531Z,22.90
2018-07-19T08:06:56.909Z,23.20
2018-07-19T08:09:24.316Z,23.50
2018-07-19T08:11:51.697Z,23.50
2018-07-19T08:14:19.083Z,23.50
2018-07-19T08:16:46.453Z,23.60
2018-07-19T08:19:13.900Z,23.60
2018-07-19T08:21:41.417Z,23.80
2018-07-19T08:24:08.845Z,23.80
2018-07-19T08:26:36.230Z,23.90
2018-07-19T08:29:03.646Z,23.90
2018-07-19T08:31:31.073Z,24.00
2018-07-19T08:33:58.521Z,24.00
2018-07-19T08:36:25.986Z,24.00
2018-07-19T08:38:53.387Z,23.80
2018-07-19T08:41:20.865Z,24.00
2018-07-19T08:43:48.253Z,24.20
2018-07-19T08:46:15.636Z,24.50
2018-07-19T08:48:43.019Z,24.50
2018-07-19T08:51:10.473Z,24.50
2018-07-19T08:53:37.912Z,24.60
2018-07-19T08:56:05.389Z,24.60
2018-07-19T08:58:32.750Z,24.60
2018-07-19T09:01:00.127Z,24.70
2018-07-19T09:03:27.539Z,24.60
2018-07-19T09:05:54.869Z,24.70
2018-07-19T09:08:22.293Z,24.80
2018-07-19T09:10:49.671Z,25.00
2018-07-19T09:13:17.058Z,25.10
2018-07-19T09:15:44.452Z,25.10
2018-07-19T09:18:11.799Z,25.30
2018-07-19T09:20:39.206Z,25.20
2018-07-19T09:23:06.566Z,25.00
2018-07-19T09:25:33.954Z,25.00
2018-07-19T09:28:01.446Z,25.20
2018-07-19T09:30:28.870Z,25.10
2018-07-19T09:32:56.368Z,25.40
2018-07-19T09:35:24.232Z,25.30
2018-07-19T09:37:51.650Z,25.50
2018-07-19T09:40:19.208Z,25.50
2018-07-19T09:42:46.638Z,25.40
2018-07-19T09:45:14.058Z,25.60
2018-07-19T09:47:41.534Z,25.60
2018-07-19T09:52:36.287Z,25.70
2018-07-19T09:55:03.636Z,25.80
2018-07-19T09:57:31.640Z,26.00
2018-07-19T09:59:59.166Z,26.20
2018-07-19T10:02:26.682Z,26.10
2018-07-19T10:04:54.296Z,26.00
2018-07-19T10:07:21.780Z,25.90
2018-07-19T10:09:49.262Z,26.20
2018-07-19T10:12:17.147Z,26.40
2018-07-19T10:14:44.766Z,26.70
2018-07-19T10:17:12.270Z,26.40
2018-07-19T10:19:39.767Z,26.50
2018-07-19T10:22:07.577Z,26.60
2018-07-19T10:24:35.072Z,26.70
2018-07-19T10:27:02.522Z,26.50
2018-07-19T10:29:29.966Z,26.70
2018-07-19T10:31:57.818Z,26.80
2018-07-19T10:34:25.324Z,26.90
2018-07-19T10:36:52.989Z,26.90
2018-07-19T10:39:20.482Z,27.10
2018-07-19T10:41:48.090Z,27.00
2018-07-19T10:44:15.567Z,27.10
2018-07-19T10:46:43.061Z,27.20
2018-07-19T10:49:10.486Z,26.90
2018-07-19T10:51:38.155Z,26.90
2018-07-19T10:54:05.645Z,26.80
2018-07-19T10:59:00.665Z,27.30
2018-07-19T11:01:27.966Z,27.30
2018-07-19T11:03:55.417Z,27.40
2018-07-19T11:06:22.858Z,27.50
2018-07-19T11:08:50.302Z,27.80
2018-07-19T11:11:17.817Z,27.60
2018-07-19T11:13:45.164Z,27.70
2018-07-19T11:16:12.561Z,27.80
2018-07-19T11:18:39.901Z,27.80
2018-07-19T11:21:07.437Z,27.70
2018-07-19T11:23:34.880Z,27.60
2018-07-19T11:26:02.621Z,27.60
2018-07-19T11:28:29.955Z,27.60
2018-07-19T11:30:57.299Z,27.90
2018-07-19T11:33:24.595Z,28.00
2018-07-19T11:35:52.545Z,28.10
2018-07-19T11:38:19.983Z,28.10
2018-07-19T11:43:14.792Z,28.30
2018-07-19T11:48:09.777Z,28.30
2018-07-19T11:50:37.168Z,28.50
2018-07-19T11:53:05.574Z,28.50
2018-07-19T11:55:33.768Z,28.40
2018-07-19T11:58:01.124Z,28.60
2018-07-19T12:00:28.632Z,28.60
2018-07-19T12:05:24.608Z,28.50
2018-07-19T12:07:52.176Z,28.50
2018-07-19T12:10:19.498Z,28.70
2018-07-19T12:12:46.928Z,28.50
2018-07-19T12:15:14.480Z,28.60
2018-07-19T12:17:41.946Z,28.60
2018-07-19T12:20:09.690Z,28.60
2018-07-19T12:22:37.402Z,28.50
2018-07-19T12:25:05.085Z,28.60
2018-07-19T12:27:32.573Z,28.70
2018-07-19T12:29:59.943Z,28.40
2018-07-19T12:32:27.411Z,28.40
2018-07-19T12:34:54.797Z,28.70
2018-07-19T12:37:22.188Z,28.50
2018-07-19T12:39:49.618Z,28.60
2018-07-19T12:42:17.135Z,28.90
2018-07-19T12:44:44.528Z,29.00
2018-07-19T12:47:12.027Z,29.10
2018-07-19T12:49:39.469Z,28.80
2018-07-19T12:52:07.065Z,29.10
2018-07-19T12:54:34.617Z,28.90
2018-07-19T12:57:02.091Z,28.80
2018-07-19T12:59:29.581Z,28.90
2018-07-19T13:01:57.198Z,29.10
2018-07-19T13:04:24.757Z,29.30
2018-07-19T13:06:52.173Z,29.40
2018-07-19T13:09:19.602Z,29.30
2018-07-19T13:11:47.328Z,29.50
2018-07-19T13:14:15.822Z,29.80
2018-07-19T13:16:43.434Z,29.80
2018-07-19T13:19:10.823Z,30.00
2018-07-19T13:21:38.297Z,29.70
2018-07-19T13:24:05.794Z,29.60
2018-07-19T13:26:33.365Z,29.70
2018-07-19T13:29:00.761Z,29.70
2018-07-19T13:31:28.139Z,30.00
2018-07-19T13:33:55.547Z,30.00
2018-07-19T13:36:23.041Z,29.90
2018-07-19T13:41:17.969Z,30.10
2018-07-19T13:46:13.309Z,30.10
2018-07-19T13:48:40.792Z,30.40
2018-07-19T13:51:08.232Z,30.40
2018-07-19T13:53:51.165Z,29.40
2018-07-19T13:56:18.872Z,29.40
2018-07-19T13:58:46.283Z,29.40
2018-07-19T14:01:13.579Z,29.70
2018-07-19T14:03:40.997Z,29.90
2018-07-19T14:06:08.469Z,30.10
2018-07-19T14:08:35.795Z,30.30
2018-07-19T14:11:03.211Z,29.60
2018-07-19T14:13:30.645Z,29.90
2018-07-19T14:15:58.289Z,30.20
2018-07-19T14:18:25.688Z,30.10
2018-07-19T14:23:20.443Z,30.40
2018-07-19T14:25:47.835Z,30.00
2018-07-19T14:28:15.203Z,29.90
2018-07-19T14:30:42.549Z,30.10
2018-07-19T14:33:10.531Z,30.40
2018-07-19T14:35:38.062Z,30.20
2018-07-19T14:38:05.555Z,30.20
2018-07-19T14:40:33.037Z,30.00
2018-07-19T14:43:00.597Z,30.10
2018-07-19T14:45:28.047Z,30.20
2018-07-19T14:47:55.498Z,30.00
2018-07-19T14:50:22.973Z,30.20
2018-07-19T14:52:50.326Z,30.20
2018-07-19T14:55:17.747Z,29.90
2018-07-19T14:57:45.261Z,29.20
2018-07-19T15:00:12.684Z,29.10
2018-07-19T15:02:40.138Z,28.80
2018-07-19T15:05:07.732Z,29.00
2018-07-19T15:07:35.042Z,29.10
2018-07-19T15:10:02.515Z,29.30
2018-07-19T15:12:29.999Z,29.30
2018-07-19T15:14:57.354Z,29.20
2018-07-19T15:17:24.720Z,29.00
2018-07-19T15:19:52.036Z,29.10
2018-07-19T15:22:19.566Z,29.00
2018-07-19T15:24:47.064Z,28.80
2018-07-19T15:27:14.585Z,29.00
2018-07-19T15:29:42.052Z,28.90
2018-07-19T15:32:09.502Z,28.70
2018-07-19T15:34:37.358Z,28.50
2018-07-19T15:37:04.816Z,28.50
2018-07-19T15:39:32.520Z,28.50
2018-07-19T15:41:59.906Z,28.50
2018-07-19T15:44:27.376Z,28.50
2018-07-19T15:46:54.862Z,28.50
2018-07-19T15:49:22.186Z,28.70
2018-07-19T15:51:49.591Z,28.70
2018-07-19T15:54:17.042Z,28.40
2018-07-19T15:56:44.443Z,28.40
2018-07-19T15:59:11.951Z,28.10
2018-07-19T16:01:39.330Z,28.00
2018-07-19T16:06:34.273Z,27.90
2018-07-19T16:09:03.181Z,28.00
2018-07-19T16:11:30.636Z,28.00
2018-07-19T16:13:58.144Z,28.00
2018-07-19T16:16:25.533Z,28.00
2018-07-19T16:18:52.906Z,28.00
2018-07-19T16:21:20.382Z,27.90
2018-07-19T16:23:47.695Z,27.70
2018-07-19T16:26:15.134Z,27.70
2018-07-19T16:28:42.612Z,27.60
2018-07-19T16:31:09.978Z,27.70
2018-07-19T16:33:37.414Z,27.70
2018-07-19T16:36:04.908Z,27.80
2018-07-19T16:38:32.374Z,27.80
2018-07-19T16:40:59.805Z,27.70
2018-07-19T16:43:27.178Z,27.60
2018-07-19T16:45:54.663Z,27.50
2018-07-19T16:48:22.414Z,27.50
2018-07-19T16:50:49.890Z,27.50
2018-07-19T16:53:17.279Z,27.40
2018-07-19T16:55:44.698Z,27.40
2018-07-19T16:58:12.083Z,27.30
2018-07-19T17:00:39.543Z,27.30
2018-07-19T17:03:07.298Z,27.30
2018-07-19T17:05:34.828Z,27.10
2018-07-19T17:10:30.225Z,27.20
2018-07-19T17:12:57.830Z,27.30
2018-07-19T17:17:53.542Z,27.30
2018-07-19T17:20:21.530Z,27.10
2018-07-19T17:22:48.922Z,27.00
2018-07-19T17:25:16.323Z,26.90
2018-07-19T17:27:43.695Z,27.00
2018-07-19T17:30:12.049Z,26.90
2018-07-19T17:32:39.400Z,27.00
2018-07-19T17:35:07.495Z,27.00
2018-07-19T17:37:35.544Z,26.90
2018-07-19T17:40:03.119Z,26.90
2018-07-19T17:42:30.490Z,26.90
2018-07-19T17:44:57.971Z,26.90
2018-07-19T17:47:25.390Z,26.90
2018-07-19T17:49:52.761Z,26.90
2018-07-19T17:52:20.162Z,26.90
2018-07-19T17:54:47.545Z,26.70
2018-07-19T17:57:15.007Z,26.70
2018-07-19T17:59:42.539Z,26.70
2018-07-19T18:02:09.934Z,26.60
2018-07-19T18:04:37.371Z,26.60
2018-07-19T18:07:04.734Z,26.50
2018-07-19T18:09:32.146Z,26.40
2018-07-19T18:11:59.587Z,26.40
2018-07-19T18:14:27.026Z,26.40
2018-07-19T18:16:54.418Z,26.30
2018-07-19T18:19:21.835Z,26.30
2018-07-19T18:24:16.704Z,26.10
2018-07-19T18:26:44.924Z,26.00
2018-07-19T18:31:39.742Z,25.90
2018-07-19T18:34:07.286Z,25.80
2018-07-19T18:39:08.621Z,25.50
2018-07-19T18:41:36.448Z,25.50
2018-07-19T18:44:03.912Z,25.30
2018-07-19T18:46:37.892Z,25.20
2018-07-19T18:49:05.393Z,25.10
2018-07-19T18:51:32.793Z,25.10
2018-07-19T18:56:27.710Z,24.80
2018-07-19T18:58:55.081Z,24.60
2018-07-19T19:01:22.477Z,24.50
2018-07-19T19:03:50.666Z,24.40
2018-07-19T19:06:19.283Z,24.40
2018-07-19T19:08:45.503Z,24.30
2018-07-19T19:11:13.028Z,24.30
2018-07-19T19:13:40.542Z,24.00
2018-07-19T19:18:35.240Z,24.00
2018-07-19T19:21:02.727Z,23.90
2018-07-19T19:23:30.226Z,23.90
2018-07-19T19:25:57.691Z,23.80
2018-07-19T19:28:25.331Z,23.80
2018-07-19T19:30:52.769Z,23.60
2018-07-19T19:33:20.389Z,23.40
2018-07-19T19:35:47.959Z,23.30
2018-07-19T19:38:15.401Z,23.20
2018-07-19T19:40:42.880Z,23.20
2018-07-19T19:45:37.786Z,22.90
2018-07-19T19:48:05.291Z,22.80
2018-07-19T19:50:32.793Z,22.70
2018-07-19T19:53:00.165Z,22.60
2018-07-19T19:55:27.609Z,22.60
2018-07-19T19:57:55.037Z,22.50
2018-07-19T20:00:22.455Z,22.40
2018-07-19T20:02:49.865Z,22.20
2018-07-19T20:05:17.304Z,22.10
2018-07-19T20:07:44.731Z,22.00
2018-07-19T20:10:12.201Z,22.00
2018-07-19T20:12:39.575Z,21.90
2018-07-19T20:15:06.994Z,21.70
2018-07-19T20:17:34.857Z,21.60
2018-07-19T20:20:02.266Z,21.60
2018-07-19T20:22:29.784Z,21.60
2018-07-19T20:24:57.259Z,21.50
2018-07-19T20:27:24.841Z,21.40
2018-07-19T20:29:52.321Z,21.30
2018-07-19T20:32:19.762Z,21.20
2018-07-19T20:34:47.254Z,21.10
2018-07-19T20:37:14.747Z,21.10
2018-07-19T20:39:42.187Z,21.10
2018-07-19T20:42:09.610Z,20.90
2018-07-19T20:44:37.066Z,20.80
2018-07-19T20:47:04.519Z,20.70
2018-07-19T20:49:32.012Z,20.50
2018-07-19T20:51:59.496Z,20.50
2018-07-19T20:54:27.008Z,20.40
2018-07-19T20:56:54.442Z,20.40
2018-07-19T20:59:21.840Z,20.30
2018-07-19T21:01:49.274Z,20.20
2018-07-19T21:06:44.038Z,20.20
2018-07-19T21:09:11.896Z,20.20
2018-07-19T21:11:39.734Z,20.30
2018-07-19T21:14:07.562Z,20.30
2018-07-19T21:16:35.016Z,20.30
2018-07-19T21:19:02.807Z,20.30
2018-07-19T21:21:30.190Z,20.40
2018-07-19T21:23:57.696Z,20.30
2018-07-19T21:26:25.078Z,20.10
2018-07-19T21:28:52.504Z,20.00
2018-07-19T21:31:19.956Z,20.00
2018-07-19T21:33:47.350Z,20.00
2018-07-19T21:36:14.730Z,19.90
2018-07-19T21:38:42.236Z,19.70
2018-07-19T21:41:09.750Z,19.50
2018-07-19T21:43:37.192Z,19.50
2018-07-19T21:46:05.104Z,19.40
2018-07-19T21:48:32.412Z,19.20
2018-07-19T21:50:59.814Z,19.10
2018-07-19T21:53:27.082Z,19.00
2018-07-19T21:55:54.466Z,19.00
2018-07-19T21:58:21.896Z,19.00
2018-07-19T22:00:54.946Z,18.90
2018-07-19T22:03:22.373Z,18.90
2018-07-19T22:05:49.726Z,19.00
2018-07-19T22:08:17.497Z,19.00
2018-07-19T22:10:44.910Z,19.10
2018-07-19T22:13:12.316Z,19.10
2018-07-19T22:15:40.517Z,19.10
2018-07-19T22:18:07.967Z,19.00
2018-07-19T22:20:35.297Z,19.10
2018-07-19T22:23:02.743Z,19.00
2018-07-19T22:25:30.088Z,19.00
2018-07-19T22:27:57.497Z,19.00
2018-07-19T22:30:24.927Z,18.80
2018-07-19T22:32:52.340Z,18.60
2018-07-19T22:35:19.789Z,18.40
2018-07-19T22:37:47.225Z,17.80
2018-07-19T22:40:14.683Z,17.40
2018-07-19T22:42:42.123Z,17.50
2018-07-19T22:45:09.517Z,17.70
2018-07-19T22:47:36.953Z,17.80
2018-07-19T22:50:04.777Z,17.90
2018-07-19T22:52:32.145Z,18.00
2018-07-19T22:54:59.601Z,18.20
2018-07-19T22:57:26.970Z,18.10
2018-07-19T22:59:54.306Z,18.10
2018-07-19T23:02:21.778Z,18.20
2018-07-19T23:04:49.177Z,18.00
2018-07-19T23:07:16.641Z,18.10
2018-07-19T23:09:44.066Z,18.10
2018-07-19T23:12:11.402Z,18.00
2018-07-19T23:14:38.723Z,17.70
2018-07-19T23:17:06.234Z,17.70
2018-07-19T23:19:34.120Z,17.50
2018-07-19T23:22:01.589Z,17.50
2018-07-19T23:24:29.001Z,17.30
2018-07-19T23:26:56.444Z,17.30
2018-07-19T23:29:23.926Z,17.30
2018-07-19T23:31:51.294Z,17.20
2018-07-19T23:34:18.630Z,17.40
2018-07-19T23:36:49.634Z,17.30
2018-07-19T23:39:22.926Z,17.30
2018-07-19T23:41:56.590Z,17.30
2018-07-19T23:44:28.131Z,17.30
2018-07-19T23:46:59.074Z,17.30
2018-07-19T23:49:26.410Z,17.30
2018-07-19T23:51:53.845Z,17.20
2018-07-19T23:56:48.624Z,17.00
2018-07-19T23:59:15.955Z,16.90
